Time;durP1;ratioP1;P1;durP2;ratioP2;P2;SDS_P1;SDS_P2;PMS_P1;PMS_P2;Temp;Humidity;BMP_temperature;BMP_pressure;BME280_temperature;BME280_humidity;BME280_pressure;Samples;Min_cycle;Max_cycle;Signal;HPM_P1;HPM_P2
2023/01/09 00:01:26;;;;;;;3.80;3.27;;;5.90;99.90;;;;;;4953684;28;20250;-57
2023/01/09 00:03:54;;;;;;;3.23;2.93;;;5.90;99.90;;;;;;4956750;28;20235;-58
2023/01/09 00:06:24;;;;;;;2.80;2.60;;;5.90;99.90;;;;;;4957718;28;20246;-59
2023/01/09 00:08:52;;;;;;;2.40;2.20;;;5.90;99.90;;;;;;4957666;28;20474;-60
2023/01/09 00:11:20;;;;;;;2.53;2.27;;;5.90;99.90;;;;;;4957707;28;20230;-59
2023/01/09 00:13:48;;;;;;;2.50;2.13;;;5.90;99.90;;;;;;4957507;28;20246;-58
2023/01/09 00:16:17;;;;;;;2.43;2.10;;;5.90;99.90;;;;;;4956294;29;20231;-59
2023/01/09 00:18:45;;;;;;;2.30;2.10;;;5.90;99.90;;;;;;4956844;29;20242;-59
2023/01/09 00:21:13;;;;;;;3.57;2.40;;;5.80;99.90;;;;;;4957548;28;20234;-58
2023/01/09 00:23:43;;;;;;;2.20;2.00;;;5.80;99.90;;;;;;4957059;28;20232;-59
2023/01/09 00:26:13;;;;;;;3.90;2.50;;;5.90;99.90;;;;;;4957477;29;20598;-59
2023/01/09 00:28:41;;;;;;;3.03;2.30;;;5.90;99.90;;;;;;4956525;28;20239;-59
2023/01/09 00:31:10;;;;;;;1.97;1.87;;;5.90;99.90;;;;;;4947664;29;20332;-59
2023/01/09 00:33:41;;;;;;;2.97;2.30;;;5.90;99.90;;;;;;4956703;29;20231;-59
2023/01/09 00:36:10;;;;;;;2.00;1.60;;;5.90;99.90;;;;;;4937846;29;20591;-59
2023/01/09 00:38:38;;;;;;;2.47;1.80;;;5.90;99.90;;;;;;4937851;29;20592;-59
2023/01/09 00:41:11;;;;;;;2.60;1.80;;;5.90;99.90;;;;;;4937964;29;20243;-60
2023/01/09 00:43:44;;;;;;;2.87;2.00;;;5.90;99.90;;;;;;4937513;29;20226;-59
2023/01/09 00:46:14;;;;;;;2.50;2.00;;;5.90;99.90;;;;;;4937491;29;20239;-58
2023/01/09 00:48:45;;;;;;;3.37;1.93;;;5.90;99.90;;;;;;4954838;29;20235;-59
2023/01/09 00:51:13;;;;;;;2.73;2.17;;;5.90;99.90;;;;;;4937584;29;20239;-59
2023/01/09 00:53:42;;;;;;;3.83;2.20;;;5.90;99.90;;;;;;4937424;29;20228;-59
2023/01/09 00:56:16;;;;;;;2.43;2.23;;;5.90;99.90;;;;;;4956146;29;20572;-60
2023/01/09 00:58:45;;;;;;;2.30;2.00;;;5.90;99.90;;;;;;4956205;29;20248;-58
2023/01/09 01:01:13;;;;;;;2.30;2.10;;;5.90;99.90;;;;;;4956210;28;20578;-59
2023/01/09 01:03:41;;;;;;;5.07;2.53;;;5.90;99.90;;;;;;4956252;28;20230;-59
2023/01/09 01:08:55;;;;;;;4.30;2.20;;;6.00;99.90;;;;;;4937309;29;20235;-59
2023/01/09 01:11:25;;;;;;;2.47;2.27;;;6.00;99.90;;;;;;4937429;29;20700;-58
2023/01/09 01:13:53;;;;;;;2.20;2.00;;;6.00;99.90;;;;;;4936529;29;20592;-59
2023/01/09 01:16:21;;;;;;;3.37;2.10;;;6.00;99.90;;;;;;4937081;29;20257;-59
2023/01/09 01:18:50;;;;;;;2.70;2.50;;;6.00;99.90;;;;;;4955026;29;20501;-59
2023/01/09 01:21:18;;;;;;;2.60;2.30;;;6.00;99.90;;;;;;4956441;28;20231;-59
2023/01/09 01:23:46;;;;;;;3.03;2.73;;;6.00;99.90;;;;;;4955981;28;20235;-59
2023/01/09 01:26:16;;;;;;;3.03;2.73;;;6.00;99.90;;;;;;4955722;28;20235;-59
2023/01/09 01:28:45;;;;;;;2.27;2.07;;;6.00;99.90;;;;;;4956023;28;20591;-59
2023/01/09 01:31:18;;;;;;;3.20;2.50;;;6.00;99.90;;;;;;4955659;28;20235;-59
2023/01/09 01:33:46;;;;;;;4.17;2.53;;;5.90;99.90;;;;;;4955869;28;20234;-59
2023/01/09 01:36:16;;;;;;;5.33;2.23;;;6.00;99.90;;;;;;4956191;28;20235;-59
2023/01/09 01:38:45;;;;;;;2.60;2.40;;;5.90;99.90;;;;;;4955186;28;20746;-59
2023/01/09 01:41:13;;;;;;;2.87;2.53;;;6.00;99.90;;;;;;4955786;29;20766;-59
2023/01/09 01:43:54;;;;;;;4.13;2.63;;;6.00;99.90;;;;;;4956069;29;20591;-59
2023/01/09 01:46:23;;;;;;;5.13;2.30;;;6.00;99.90;;;;;;4955927;28;20497;-59
2023/01/09 01:48:56;;;;;;;4.40;2.43;;;6.00;99.90;;;;;;4955282;28;20234;-56
2023/01/09 01:51:28;;;;;;;3.17;2.50;;;6.00;99.90;;;;;;4955884;28;20254;-59
2023/01/09 01:54:01;;;;;;;3.37;2.53;;;5.90;99.90;;;;;;4955794;29;20470;-59
2023/01/09 01:56:32;;;;;;;3.43;2.80;;;5.90;99.90;;;;;;4955568;29;20231;-58
2023/01/09 01:59:10;;;;;;;4.07;2.60;;;5.90;99.90;;;;;;4955477;28;20236;-58
2023/01/09 02:01:40;;;;;;;3.53;2.73;;;5.90;99.90;;;;;;4954769;28;20591;-58
2023/01/09 02:04:09;;;;;;;3.37;3.07;;;6.00;99.90;;;;;;4955671;28;20726;-59
2023/01/09 02:06:38;;;;;;;3.67;3.23;;;5.90;99.90;;;;;;4955360;29;20247;-59
2023/01/09 02:09:07;;;;;;;4.10;2.97;;;6.00;99.90;;;;;;4955336;29;20230;-59
2023/01/09 02:11:35;;;;;;;3.53;3.03;;;6.00;99.90;;;;;;4955160;29;20228;-59
2023/01/09 02:14:04;;;;;;;3.37;3.07;;;6.00;99.90;;;;;;4955460;29;20247;-59
2023/01/09 02:16:46;;;;;;;3.47;2.87;;;6.00;99.90;;;;;;4954993;29;20230;-58
2023/01/09 02:19:50;;;;;;;3.27;2.97;;;6.00;99.90;;;;;;4947830;29;20226;-59
2023/01/09 02:22:29;;;;;;;5.83;3.60;;;6.10;99.90;;;;;;4955290;29;20713;-59
2023/01/09 02:25:24;;;;;;;4.43;3.33;;;6.10;99.90;;;;;;4954845;28;20525;-60
2023/01/09 02:28:19;;;;;;;3.60;3.30;;;6.10;99.90;;;;;;4954907;28;20595;-59
2023/01/09 02:30:52;;;;;;;4.33;3.80;;;6.20;99.90;;;;;;4954513;28;20702;-59
2023/01/09 02:33:32;;;;;;;6.00;3.77;;;6.20;99.90;;;;;;4954775;28;20595;-59
2023/01/09 02:36:10;;;;;;;4.47;3.90;;;6.20;99.90;;;;;;4955115;28;20706;-60
2023/01/09 02:38:47;;;;;;;4.93;3.63;;;6.30;99.90;;;;;;4955018;28;20240;-59
2023/01/09 02:41:21;;;;;;;4.00;3.67;;;6.30;99.90;;;;;;4955088;28;20231;-59
2023/01/09 02:44:15;;;;;;;4.23;3.83;;;6.30;99.90;;;;;;4955001;28;20242;-59
2023/01/09 02:46:45;;;;;;;4.67;3.80;;;6.30;99.90;;;;;;4953662;28;20639;-59
2023/01/09 02:49:15;;;;;;;5.23;3.83;;;6.30;99.90;;;;;;4947240;29;20233;-60
2023/01/09 02:51:51;;;;;;;4.33;3.93;;;6.30;99.90;;;;;;4954552;28;20234;-59
2023/01/09 02:54:28;;;;;;;5.70;4.17;;;6.40;99.90;;;;;;4954923;29;20282;-60
2023/01/09 02:57:14;;;;;;;4.90;4.40;;;6.40;99.90;;;;;;4954897;29;20234;-59
2023/01/09 02:59:56;;;;;;;4.63;4.20;;;6.40;99.90;;;;;;4950802;28;20235;-59
2023/01/09 03:02:39;;;;;;;5.27;4.63;;;6.40;99.90;;;;;;4940485;29;20243;-56
2023/01/09 03:05:13;;;;;;;5.00;4.10;;;6.50;99.90;;;;;;4954438;28;20227;-59
2023/01/09 03:07:45;;;;;;;5.03;4.53;;;6.50;99.90;;;;;;4953032;29;20239;-59
2023/01/09 03:10:19;;;;;;;5.57;4.30;;;6.60;99.90;;;;;;4954340;28;20258;-59
2023/01/09 03:12:51;;;;;;;5.50;4.33;;;6.50;99.90;;;;;;4954545;29;20587;-59
2023/01/09 03:15:22;;;;;;;5.63;4.63;;;6.60;99.90;;;;;;4954519;28;20235;-59
2023/01/09 03:17:52;;;;;;;4.73;4.23;;;6.50;99.90;;;;;;4954509;29;20746;-58
2023/01/09 03:20:23;;;;;;;5.97;4.40;;;6.50;99.90;;;;;;4954620;29;20583;-59
2023/01/09 03:22:57;;;;;;;7.47;5.00;;;6.50;99.90;;;;;;4954386;28;20227;-59
2023/01/09 03:25:26;;;;;;;6.37;5.03;;;6.50;99.90;;;;;;4954371;28;20587;-59
2023/01/09 03:27:57;;;;;;;5.00;4.40;;;6.60;99.90;;;;;;4954337;28;20231;-59
2023/01/09 03:30:27;;;;;;;6.07;4.67;;;6.50;99.90;;;;;;4953914;28;20238;-58
2023/01/09 03:32:57;;;;;;;5.47;4.90;;;6.50;99.90;;;;;;4954398;28;20630;-59
2023/01/09 03:35:25;;;;;;;5.17;4.67;;;6.50;99.90;;;;;;4954387;29;20717;-58
2023/01/09 03:37:55;;;;;;;5.20;4.70;;;6.50;99.90;;;;;;4955987;28;20714;-55
2023/01/09 03:40:23;;;;;;;6.10;5.50;;;6.60;99.90;;;;;;4957888;29;20231;-59
2023/01/09 03:42:51;;;;;;;7.03;5.00;;;6.60;99.90;;;;;;4958143;28;20234;-59
2023/01/09 03:45:19;;;;;;;5.60;5.10;;;6.60;99.90;;;;;;4957748;29;20326;-59
2023/01/09 03:47:47;;;;;;;5.73;5.00;;;6.60;99.90;;;;;;4957518;29;20231;-59
2023/01/09 03:50:16;;;;;;;6.00;5.17;;;6.60;99.90;;;;;;4957755;29;20224;-59
2023/01/09 03:52:44;;;;;;;6.80;4.97;;;6.60;99.90;;;;;;4957856;28;20238;-60
2023/01/09 03:55:12;;;;;;;7.10;5.50;;;6.60;99.90;;;;;;4958287;28;20283;-59
2023/01/09 03:57:42;;;;;;;6.27;5.67;;;6.60;99.90;;;;;;4957739;28;20235;-58
2023/01/09 04:00:12;;;;;;;6.10;5.50;;;6.60;99.90;;;;;;4949365;28;20242;-56
2023/01/09 04:02:40;;;;;;;5.97;5.23;;;6.60;99.90;;;;;;4957501;28;20297;-59
2023/01/09 04:05:08;;;;;;;7.83;5.50;;;6.70;99.90;;;;;;4957477;28;20275;-59
2023/01/09 04:07:38;;;;;;;6.90;5.87;;;6.70;99.90;;;;;;4957509;28;20243;-59
2023/01/09 04:10:06;;;;;;;6.60;5.40;;;6.70;99.90;;;;;;4957040;28;20231;-59
2023/01/09 04:12:34;;;;;;;6.23;5.63;;;6.70;99.90;;;;;;4957447;29;20695;-58
2023/01/09 04:15:03;;;;;;;6.70;6.00;;;6.70;99.90;;;;;;4957708;28;20560;-59
2023/01/09 04:17:31;;;;;;;6.83;5.63;;;6.70;99.90;;;;;;4957030;29;20226;-58
2023/01/09 04:19:59;;;;;;;6.73;6.03;;;6.70;99.90;;;;;;4957611;28;20556;-59
2023/01/09 04:22:27;;;;;;;5.93;5.33;;;6.70;99.90;;;;;;4957287;28;20238;-59
2023/01/09 04:24:57;;;;;;;5.13;4.63;;;6.70;99.90;;;;;;4957157;28;20227;-59
2023/01/09 04:27:25;;;;;;;5.13;4.63;;;6.80;99.90;;;;;;4957018;28;20242;-58
2023/01/09 04:29:53;;;;;;;4.70;4.30;;;6.90;99.90;;;;;;4956943;29;20232;-59
2023/01/09 04:32:21;;;;;;;4.53;4.13;;;6.80;99.90;;;;;;4956492;28;20235;-59
2023/01/09 04:34:49;;;;;;;4.00;3.60;;;6.80;99.90;;;;;;4957207;28;20231;-58
2023/01/09 04:37:17;;;;;;;3.90;3.43;;;6.80;99.90;;;;;;4957280;28;20243;-59
2023/01/09 04:39:45;;;;;;;4.10;3.67;;;6.80;99.90;;;;;;4956703;28;20250;-59
2023/01/09 04:42:14;;;;;;;3.70;3.40;;;6.80;99.90;;;;;;4956836;29;20232;-59
2023/01/09 04:44:43;;;;;;;3.37;3.07;;;6.80;99.90;;;;;;4956704;28;20224;-59
2023/01/09 04:47:12;;;;;;;3.30;3.00;;;6.80;99.90;;;;;;4956793;28;20229;-59
2023/01/09 04:49:40;;;;;;;3.47;2.80;;;6.90;99.90;;;;;;4955495;28;20235;-59
2023/01/09 04:52:08;;;;;;;2.43;2.23;;;6.90;99.90;;;;;;4956963;29;20227;-59
2023/01/09 04:54:38;;;;;;;3.57;2.73;;;7.00;99.90;;;;;;4956439;29;20318;-59
2023/01/09 04:57:06;;;;;;;2.80;2.50;;;6.90;99.90;;;;;;4956881;29;20232;-59
2023/01/09 04:59:36;;;;;;;3.33;2.60;;;6.90;99.90;;;;;;4956385;28;20232;-59
2023/01/09 05:02:04;;;;;;;3.10;2.50;;;7.00;99.90;;;;;;4956077;28;20245;-59
2023/01/09 05:04:33;;;;;;;2.87;2.60;;;6.90;99.90;;;;;;4956365;28;20246;-59
2023/01/09 05:07:01;;;;;;;2.30;2.10;;;6.80;99.90;;;;;;4956972;28;20274;-59
2023/01/09 05:09:29;;;;;;;3.03;2.53;;;6.80;99.90;;;;;;4955911;28;20232;-58
2023/01/09 05:11:57;;;;;;;2.50;2.30;;;6.80;99.90;;;;;;4956396;29;20232;-59
2023/01/09 05:14:28;;;;;;;3.33;2.70;;;6.80;99.90;;;;;;4956411;29;20242;-58
2023/01/09 05:16:57;;;;;;;3.07;2.77;;;6.80;99.90;;;;;;4956340;29;20231;-59
2023/01/09 05:19:25;;;;;;;3.53;2.87;;;6.80;99.90;;;;;;4956251;28;20235;-59
2023/01/09 05:21:53;;;;;;;3.50;2.70;;;6.80;99.90;;;;;;4956152;28;20234;-59
2023/01/09 05:24:21;;;;;;;3.00;2.70;;;6.80;99.90;;;;;;4956200;28;20223;-59
2023/01/09 05:26:49;;;;;;;2.73;2.50;;;6.80;99.90;;;;;;4956475;28;20325;-59
2023/01/09 05:29:17;;;;;;;3.10;2.80;;;6.80;99.90;;;;;;4954463;28;20243;-59
2023/01/09 05:31:45;;;;;;;2.67;2.47;;;6.80;99.90;;;;;;4954723;28;20703;-59
2023/01/09 05:34:15;;;;;;;3.37;2.73;;;6.80;99.90;;;;;;4956133;28;20231;-59
2023/01/09 05:36:43;;;;;;;4.40;3.10;;;6.80;99.90;;;;;;4956008;28;20235;-59
2023/01/09 05:39:11;;;;;;;4.83;3.63;;;6.80;99.90;;;;;;4956217;28;20587;-59
2023/01/09 05:41:39;;;;;;;3.77;3.47;;;6.80;99.90;;;;;;4954456;28;20235;-59
2023/01/09 05:44:07;;;;;;;4.53;3.60;;;6.90;99.90;;;;;;4955492;28;20234;-58
2023/01/09 05:46:35;;;;;;;4.30;3.90;;;6.90;99.90;;;;;;4955498;29;20231;-59
2023/01/09 05:49:03;;;;;;;3.93;3.63;;;6.90;99.90;;;;;;4955675;29;20250;-59
2023/01/09 05:51:33;;;;;;;4.80;4.10;;;6.90;99.90;;;;;;4955394;29;20223;-58
2023/01/09 05:54:02;;;;;;;4.57;4.17;;;6.80;99.90;;;;;;4955592;29;20586;-59
2023/01/09 05:56:30;;;;;;;4.10;3.70;;;6.90;99.90;;;;;;4955139;29;20239;-58
2023/01/09 05:58:58;;;;;;;5.30;3.80;;;6.80;99.90;;;;;;4955641;28;20231;-59
2023/01/09 06:01:27;;;;;;;4.90;4.27;;;7.00;99.90;;;;;;4954554;28;20239;-56
2023/01/09 06:03:55;;;;;;;5.13;4.63;;;7.10;99.90;;;;;;4955132;28;20228;-58
2023/01/09 06:06:23;;;;;;;4.73;4.33;;;7.00;99.90;;;;;;4955670;28;20235;-58
2023/01/09 06:08:52;;;;;;;5.53;4.73;;;6.90;99.90;;;;;;4955517;28;20725;-59
2023/01/09 06:11:20;;;;;;;5.80;5.30;;;7.00;99.90;;;;;;4955009;28;20234;-59
2023/01/09 06:13:48;;;;;;;5.93;5.33;;;6.90;99.90;;;;;;4954544;29;20239;-59
2023/01/09 06:16:17;;;;;;;7.50;5.97;;;6.90;99.90;;;;;;4954246;28;20225;-59
2023/01/09 06:18:45;;;;;;;6.97;6.37;;;7.00;99.90;;;;;;4955162;28;20228;-59
2023/01/09 06:21:13;;;;;;;7.67;6.40;;;6.90;99.90;;;;;;4955167;29;20235;-58
2023/01/09 06:23:41;;;;;;;6.53;5.73;;;6.90;99.90;;;;;;4954412;28;20261;-58
2023/01/09 06:26:11;;;;;;;7.60;6.27;;;6.90;99.90;;;;;;4955336;29;20238;-58
2023/01/09 06:28:39;;;;;;;7.20;6.50;;;6.80;99.90;;;;;;4955010;28;20242;-59
2023/01/09 06:31:07;;;;;;;9.40;7.40;;;6.70;99.90;;;;;;4954308;28;20235;-59
2023/01/09 06:33:35;;;;;;;7.80;6.93;;;6.70;99.90;;;;;;4954624;29;20230;-59
2023/01/09 06:36:03;;;;;;;9.03;7.53;;;6.80;99.90;;;;;;4954288;29;20231;-57
2023/01/09 06:38:31;;;;;;;8.67;7.77;;;6.70;99.90;;;;;;4953627;29;20223;-58
2023/01/09 06:40:59;;;;;;;9.03;7.80;;;6.70;99.90;;;;;;4951329;29;20227;-59
2023/01/09 06:43:29;;;;;;;10.47;7.63;;;6.70;99.90;;;;;;4949874;28;20314;-58
2023/01/09 06:45:57;;;;;;;9.87;8.20;;;6.80;99.90;;;;;;4953335;28;20239;-59
2023/01/09 06:48:25;;;;;;;9.97;8.47;;;6.70;99.90;;;;;;4953708;28;20259;-59
2023/01/09 06:50:54;;;;;;;9.50;8.50;;;6.60;99.90;;;;;;4951355;29;20238;-59
2023/01/09 06:53:22;;;;;;;9.03;8.13;;;6.70;99.90;;;;;;4953688;29;20220;-59
2023/01/09 06:55:50;;;;;;;9.20;8.30;;;6.60;99.90;;;;;;4953660;28;20227;-59
2023/01/09 06:58:19;;;;;;;9.27;8.37;;;6.70;99.90;;;;;;4954015;28;20686;-59
2023/01/09 07:00:49;;;;;;;9.97;8.37;;;6.70;99.90;;;;;;4952452;28;20293;-59
2023/01/09 07:03:18;;;;;;;9.87;8.33;;;6.70;99.90;;;;;;4953384;28;20290;-59
2023/01/09 07:05:46;;;;;;;8.80;8.00;;;6.90;99.90;;;;;;4953544;28;20729;-59
2023/01/09 07:08:15;;;;;;;10.00;8.17;;;6.80;99.90;;;;;;4953625;29;20223;-59
2023/01/09 07:10:44;;;;;;;10.77;8.70;;;6.90;99.90;;;;;;4952905;28;20223;-59
2023/01/09 07:13:12;;;;;;;8.67;7.77;;;6.80;99.90;;;;;;4951738;28;20227;-55
2023/01/09 07:15:40;;;;;;;9.27;8.30;;;6.80;99.90;;;;;;4956871;28;20227;-56
2023/01/09 07:18:10;;;;;;;9.90;8.07;;;6.80;99.90;;;;;;4956553;28;20234;-59
2023/01/09 07:20:40;;;;;;;7.87;7.03;;;6.80;99.90;;;;;;4957168;28;20282;-59
2023/01/09 07:23:10;;;;;;;8.97;7.40;;;6.80;99.90;;;;;;4955141;29;20278;-59
2023/01/09 07:25:39;;;;;;;7.73;6.80;;;6.70;99.90;;;;;;4956243;29;20427;-59
2023/01/09 07:28:07;;;;;;;9.73;7.17;;;6.80;99.90;;;;;;4957128;28;20632;-59
2023/01/09 07:30:35;;;;;;;7.90;6.80;;;6.70;99.90;;;;;;4956990;28;20242;-58
2023/01/09 07:33:03;;;;;;;7.37;6.67;;;6.70;99.90;;;;;;4954148;29;20223;-59
2023/01/09 07:35:32;;;;;;;8.50;6.87;;;6.70;99.90;;;;;;4957048;29;20234;-57
2023/01/09 07:38:00;;;;;;;7.23;6.53;;;6.70;99.90;;;;;;4956841;28;20691;-59
2023/01/09 07:40:28;;;;;;;9.33;6.13;;;6.70;99.90;;;;;;4956834;28;20227;-59
2023/01/09 07:42:57;;;;;;;7.53;5.93;;;6.60;99.90;;;;;;4953661;29;20228;-59
2023/01/09 07:45:25;;;;;;;8.13;6.40;;;6.60;99.90;;;;;;4956760;28;20230;-59
2023/01/09 07:47:53;;;;;;;6.87;6.17;;;6.60;99.90;;;;;;4956586;28;20290;-59
2023/01/09 07:50:21;;;;;;;8.53;5.93;;;6.50;99.90;;;;;;4956680;28;20250;-58
2023/01/09 07:52:50;;;;;;;7.90;5.90;;;6.50;99.90;;;;;;4953278;28;20227;-60
2023/01/09 07:55:18;;;;;;;8.27;6.30;;;6.40;99.90;;;;;;4956679;29;20242;-59
2023/01/09 07:57:48;;;;;;;8.63;6.10;;;6.40;99.90;;;;;;4951935;29;20231;-58
2023/01/09 08:00:24;;;;;;;9.03;6.10;;;6.30;99.90;;;;;;4951854;28;20470;-59
2023/01/09 08:03:05;;;;;;;7.27;5.60;;;6.30;99.90;;;;;;4953425;28;20328;-59
2023/01/09 08:05:38;;;;;;;8.73;6.27;;;6.30;99.90;;;;;;4955238;29;20231;-59
2023/01/09 08:08:08;;;;;;;10.77;6.53;;;6.30;99.90;;;;;;4956236;29;20238;-59
2023/01/09 08:10:37;;;;;;;8.63;6.13;;;6.20;99.90;;;;;;4952652;29;20235;-59
2023/01/09 08:13:06;;;;;;;8.13;5.20;;;6.20;99.90;;;;;;4954324;29;20266;-59
2023/01/09 08:15:36;;;;;;;7.23;6.00;;;6.20;99.90;;;;;;4956660;28;20703;-59
2023/01/09 08:18:05;;;;;;;8.33;5.70;;;6.10;99.90;;;;;;4956594;28;20742;-60
2023/01/09 08:20:34;;;;;;;7.63;5.73;;;6.10;99.90;;;;;;4956235;28;20298;-59
2023/01/09 08:23:03;;;;;;;7.00;5.37;;;6.10;99.90;;;;;;4953461;28;20310;-59
2023/01/09 08:25:34;;;;;;;8.07;5.77;;;6.10;99.90;;;;;;4956522;28;20322;-59
2023/01/09 08:28:02;;;;;;;9.00;6.47;;;6.10;99.90;;;;;;4954767;28;20224;-59
2023/01/09 08:30:30;;;;;;;8.60;6.47;;;6.10;99.90;;;;;;4955903;28;20247;-59
2023/01/09 08:32:58;;;;;;;11.70;6.37;;;6.10;99.90;;;;;;4951074;29;20236;-59
2023/01/09 08:35:27;;;;;;;10.70;6.33;;;6.10;99.90;;;;;;4955672;29;20255;-58
2023/01/09 08:37:55;;;;;;;8.30;6.63;;;6.10;99.90;;;;;;4956695;29;20614;-59
2023/01/09 08:40:23;;;;;;;8.10;6.43;;;6.10;99.90;;;;;;4956200;29;20237;-60
2023/01/09 08:48:23;;;;;;;8.10;6.60;;;6.20;99.90;;;;;;4947177;29;20243;-59
2023/01/09 08:50:53;;;;;;;11.60;7.00;;;6.20;99.90;;;;;;4947375;29;20628;-59
2023/01/09 08:53:21;;;;;;;8.80;7.60;;;6.30;99.90;;;;;;4943881;29;20272;-59
2023/01/09 08:55:49;;;;;;;10.87;8.17;;;6.30;99.90;;;;;;4946556;28;20485;-56
2023/01/09 08:58:18;;;;;;;13.47;8.23;;;6.30;99.90;;;;;;4947041;28;20214;-58
2023/01/09 09:00:46;;;;;;;13.07;8.67;;;6.30;99.90;;;;;;4947547;28;20207;-56
2023/01/09 09:03:14;;;;;;;11.17;8.53;;;6.30;99.90;;;;;;4944125;29;20466;-57
2023/01/09 09:05:42;;;;;;;12.97;9.63;;;6.30;99.90;;;;;;4947812;28;20815;-59
2023/01/09 09:08:14;;;;;;;12.50;9.27;;;6.40;99.90;;;;;;4948538;29;20572;-58
2023/01/09 09:10:42;;;;;;;12.47;9.60;;;6.40;99.90;;;;;;4948805;28;20231;-58
2023/01/09 09:13:10;;;;;;;17.00;11.10;;;6.50;99.90;;;;;;4946613;29;20215;-55
2023/01/09 09:15:40;;;;;;;16.07;11.17;;;6.40;99.90;;;;;;4948754;28;20935;-58
2023/01/09 09:18:08;;;;;;;17.43;11.67;;;6.40;99.90;;;;;;4947677;29;20238;-58
2023/01/09 09:20:38;;;;;;;17.90;12.63;;;6.50;99.90;;;;;;4947882;28;20222;-58
2023/01/09 09:23:07;;;;;;;24.33;13.50;;;6.50;99.90;;;;;;4944728;28;20701;-59
2023/01/09 09:25:37;;;;;;;17.47;13.17;;;6.50;99.90;;;;;;4946781;29;20215;-58
2023/01/09 09:28:05;;;;;;;17.37;13.30;;;6.60;99.90;;;;;;4946585;28;20289;-58
2023/01/09 09:30:34;;;;;;;18.07;12.57;;;6.60;99.90;;;;;;4947273;28;20238;-57
2023/01/09 09:33:04;;;;;;;20.73;13.23;;;6.60;99.90;;;;;;4944403;29;20659;-60
2023/01/09 09:35:33;;;;;;;21.67;14.57;;;6.60;99.90;;;;;;4946268;28;20218;-56
2023/01/09 09:38:03;;;;;;;22.67;15.63;;;6.60;99.90;;;;;;4946656;29;20242;-58
2023/01/09 09:40:47;;;;;;;24.57;17.07;;;6.60;99.90;;;;;;4946571;29;20211;-59
2023/01/09 09:46:32;;;;;;;22.67;15.73;;;6.60;99.90;;;;;;4945626;28;20487;-59
2023/01/09 09:49:10;;;;;;;26.17;16.13;;;6.60;99.90;;;;;;4946068;28;20607;-59
2023/01/09 09:51:50;;;;;;;30.23;17.60;;;6.60;99.90;;;;;;4946288;29;20222;-59
2023/01/09 09:54:23;;;;;;;22.37;14.13;;;6.60;99.90;;;;;;4945570;29;20212;-57
2023/01/09 09:56:56;;;;;;;17.73;12.93;;;6.60;99.90;;;;;;4946485;29;20290;-59
2023/01/09 09:59:27;;;;;;;18.67;12.00;;;6.60;99.90;;;;;;4946389;28;20729;-56
2023/01/09 10:01:58;;;;;;;17.17;12.00;;;6.60;99.90;;;;;;4947131;28;20239;-53
2023/01/09 10:04:32;;;;;;;16.27;11.57;;;6.60;99.90;;;;;;4947484;29;20663;-59
2023/01/09 10:07:04;;;;;;;15.63;11.27;;;6.60;99.90;;;;;;4947978;29;20455;-59
2023/01/09 10:09:44;;;;;;;19.43;11.17;;;6.60;99.90;;;;;;4947929;29;20227;-59
2023/01/09 10:12:27;;;;;;;16.33;10.57;;;6.60;99.90;;;;;;4946294;29;20740;-59
2023/01/09 10:14:57;;;;;;;16.33;10.23;;;6.70;99.90;;;;;;4946732;29;20607;-59
2023/01/09 10:17:46;;;;;;;18.50;9.83;;;6.70;99.90;;;;;;4947287;28;20227;-57
2023/01/09 10:20:39;;;;;;;17.47;9.90;;;6.80;99.90;;;;;;4947565;29;20689;-57
2023/01/09 10:23:23;;;;;;;14.17;9.07;;;6.80;99.90;;;;;;4945481;29;20237;-54
2023/01/09 10:25:56;;;;;;;15.57;10.33;;;6.80;99.90;;;;;;4947063;29;20307;-59
2023/01/09 10:28:41;;;;;;;20.07;10.63;;;6.80;99.90;;;;;;4946489;29;20297;-59
2023/01/09 10:31:18;;;;;;;17.57;11.97;;;6.80;99.90;;;;;;4945839;29;20219;-56
2023/01/09 10:33:56;;;;;;;17.73;13.03;;;6.80;99.90;;;;;;4943700;29;20218;-54
2023/01/09 10:36:56;;;;;;;20.80;13.47;;;6.70;99.90;;;;;;4945274;29;20222;-55
2023/01/09 10:39:29;;;;;;;15.60;11.57;;;6.80;99.90;;;;;;4945151;29;20207;-57
2023/01/09 10:42:01;;;;;;;19.53;11.67;;;6.80;99.90;;;;;;4945048;29;20208;-58
2023/01/09 10:44:36;;;;;;;17.00;11.53;;;6.80;99.90;;;;;;4944148;29;21086;-58
2023/01/09 10:47:11;;;;;;;20.23;10.93;;;6.90;99.90;;;;;;4945471;28;20214;-58
2023/01/09 10:49:40;;;;;;;18.70;11.43;;;6.90;99.90;;;;;;4946164;29;20203;-58
2023/01/09 10:52:16;;;;;;;16.37;10.43;;;6.90;99.90;;;;;;4944250;28;20242;-58
2023/01/09 10:54:52;;;;;;;15.97;11.00;;;6.90;99.90;;;;;;4943713;28;20698;-58
2023/01/09 10:57:34;;;;;;;14.60;10.67;;;7.10;99.90;;;;;;4945341;28;20243;-58
2023/01/09 11:00:02;;;;;;;13.00;9.67;;;7.20;99.90;;;;;;4945075;28;20226;-59
2023/01/09 11:02:33;;;;;;;14.83;10.17;;;7.20;99.90;;;;;;4943768;28;20256;-59
2023/01/09 11:05:02;;;;;;;12.17;9.20;;;7.20;99.90;;;;;;4944175;29;20338;-59
2023/01/09 11:07:35;;;;;;;12.90;9.63;;;7.30;99.90;;;;;;4944946;28;20257;-59
2023/01/09 11:10:06;;;;;;;11.90;8.90;;;7.40;99.90;;;;;;4944875;29;20247;-58
2023/01/09 11:12:36;;;;;;;15.27;9.83;;;7.40;99.90;;;;;;4944231;29;20215;-58
2023/01/09 11:15:27;;;;;;;15.13;9.87;;;7.50;99.90;;;;;;4945468;28;20218;-55
2023/01/09 11:18:13;;;;;;;16.43;8.97;;;7.50;99.90;;;;;;4943944;29;20259;-58
2023/01/09 11:20:41;;;;;;;14.00;8.63;;;7.50;99.90;;;;;;4945781;28;20974;-57
2023/01/09 11:23:25;;;;;;;12.43;7.90;;;7.50;99.90;;;;;;4944231;28;20215;-55
2023/01/09 11:25:55;;;;;;;10.20;7.40;;;7.50;99.90;;;;;;4942893;28;20214;-59
2023/01/09 11:28:23;;;;;;;10.57;7.30;;;7.50;99.90;;;;;;4945184;29;20655;-59
2023/01/09 11:30:53;;;;;;;11.30;6.47;;;7.50;99.90;;;;;;4945524;29;20212;-59
2023/01/09 11:33:24;;;;;;;13.80;7.23;;;7.50;99.90;;;;;;4943711;29;20233;-57
2023/01/09 11:35:59;;;;;;;12.07;7.53;;;7.40;99.90;;;;;;4944032;29;20218;-56
2023/01/09 11:38:30;;;;;;;11.90;6.97;;;7.40;99.90;;;;;;4945574;29;20219;-56
2023/01/09 11:41:01;;;;;;;21.30;11.73;;;7.40;99.90;;;;;;4944969;29;20242;-54
2023/01/09 11:43:33;;;;;;;16.40;9.20;;;7.50;99.90;;;;;;4943125;29;20211;-58
2023/01/09 11:46:05;;;;;;;13.87;8.87;;;7.50;99.90;;;;;;4946242;28;20586;-58
2023/01/09 11:48:42;;;;;;;12.97;7.20;;;7.50;99.90;;;;;;4946332;29;20311;-57
2023/01/09 11:51:19;;;;;;;10.83;6.50;;;7.50;99.90;;;;;;4945059;28;20568;-59
2023/01/09 11:54:21;;;;;;;11.23;7.13;;;7.50;99.90;;;;;;4944412;29;20207;-56
2023/01/09 11:56:50;;;;;;;16.77;8.80;;;7.40;99.90;;;;;;4924408;28;20239;-58
2023/01/09 11:59:20;;;;;;;13.57;8.27;;;7.40;99.90;;;;;;4947880;28;20270;-58
2023/01/09 12:02:14;;;;;;;12.40;7.47;;;7.40;99.90;;;;;;4947710;28;20515;-57
2023/01/09 12:04:49;;;;;;;18.57;12.17;;;7.40;99.90;;;;;;4948617;29;20703;-57
2023/01/09 12:07:42;;;;;;;17.90;10.50;;;7.40;99.90;;;;;;4949279;28;20235;-59
2023/01/09 12:10:40;;;;;;;13.07;8.07;;;7.40;99.90;;;;;;4930572;29;20229;-59
2023/01/09 12:13:22;;;;;;;11.30;7.03;;;7.30;99.90;;;;;;4946239;29;20282;-58
2023/01/09 12:15:59;;;;;;;11.90;7.97;;;7.30;99.90;;;;;;4949562;28;20585;-59
2023/01/09 12:18:40;;;;;;;14.70;8.63;;;7.30;99.90;;;;;;4949248;29;20805;-57
2023/01/09 12:21:27;;;;;;;12.37;8.00;;;7.30;99.90;;;;;;4949010;29;20242;-55
2023/01/09 12:24:10;;;;;;;13.20;8.43;;;7.40;99.90;;;;;;4947687;29;20226;-57
2023/01/09 12:26:49;;;;;;;12.20;8.07;;;7.40;99.90;;;;;;4948557;29;20611;-58
2023/01/09 12:29:53;;;;;;;13.17;8.50;;;7.30;99.90;;;;;;4947358;28;20758;-59
2023/01/09 12:32:45;;;;;;;11.13;8.30;;;7.30;99.90;;;;;;4944143;28;20242;-58
2023/01/09 12:35:24;;;;;;;13.90;8.10;;;7.30;99.90;;;;;;4947940;28;20691;-57
2023/01/09 12:38:15;;;;;;;11.77;8.57;;;7.30;99.90;;;;;;4948819;29;20207;-58
2023/01/09 12:40:56;;;;;;;11.23;8.67;;;7.30;99.90;;;;;;4949223;29;20243;-57
2023/01/09 12:43:39;;;;;;;12.37;9.23;;;7.30;99.90;;;;;;4947754;29;20242;-58
2023/01/09 12:46:16;;;;;;;17.20;9.27;;;7.30;99.90;;;;;;4949348;28;20204;-58
2023/01/09 12:49:03;;;;;;;18.93;9.07;;;7.30;99.90;;;;;;4949756;29;20218;-56
2023/01/09 12:51:36;;;;;;;13.33;9.57;;;7.30;99.90;;;;;;4948857;29;20219;-59
2023/01/09 12:54:10;;;;;;;14.87;8.53;;;7.20;99.90;;;;;;4947254;28;20232;-56
2023/01/09 12:56:43;;;;;;;15.83;9.30;;;7.20;99.90;;;;;;4948479;29;20211;-58
2023/01/09 12:59:28;;;;;;;12.63;10.13;;;7.20;99.90;;;;;;4948897;28;20576;-56
2023/01/09 13:02:06;;;;;;;13.40;9.50;;;7.20;99.90;;;;;;4948418;29;20239;-55
2023/01/09 13:04:39;;;;;;;15.30;9.47;;;7.20;99.90;;;;;;4949421;28;20212;-58
2023/01/09 13:07:15;;;;;;;14.37;10.30;;;7.30;99.90;;;;;;4949341;29;20211;-58
2023/01/09 13:09:49;;;;;;;11.83;9.77;;;7.30;99.90;;;;;;4945467;28;20630;-57
2023/01/09 13:12:20;;;;;;;13.57;9.63;;;7.40;99.90;;;;;;4945314;28;20255;-57
2023/01/09 13:14:53;;;;;;;14.03;10.37;;;7.40;99.90;;;;;;4946339;28;20203;-58
2023/01/09 13:17:27;;;;;;;14.70;10.63;;;7.40;99.90;;;;;;4947542;28;20219;-58
2023/01/09 13:19:55;;;;;;;14.53;9.70;;;7.40;99.90;;;;;;4946867;29;20210;-57
2023/01/09 13:22:27;;;;;;;15.83;9.73;;;7.30;99.90;;;;;;4944789;29;20258;-55
2023/01/09 13:25:17;;;;;;;13.67;10.30;;;7.30;99.90;;;;;;4947435;29;20302;-56
2023/01/09 13:27:53;;;;;;;15.30;10.47;;;7.30;99.90;;;;;;4947118;29;20207;-57
2023/01/09 13:30:42;;;;;;;12.87;10.00;;;7.30;99.90;;;;;;4948500;28;20618;-57